createdAt,value
2022-12-16T00:00:11.185Z,75.86
2022-12-16T00:02:43.855Z,76.60
2022-12-16T00:05:16.566Z,76.35
2022-12-16T00:07:49.601Z,76.11
2022-12-16T00:10:21.712Z,76.55
2022-12-16T00:12:53.761Z,76.82
2022-12-16T00:15:27.090Z,76.84
2022-12-16T00:17:59.178Z,76.73
2022-12-16T00:20:31.092Z,76.45
2022-12-16T00:23:03.000Z,76.65
2022-12-16T00:25:35.063Z,77.02
2022-12-16T00:28:06.921Z,76.88
2022-12-16T00:30:39.535Z,76.65
2022-12-16T00:33:11.583Z,76.37
2022-12-16T00:35:46.004Z,76.10
2022-12-16T00:38:17.650Z,76.04
2022-12-16T00:40:49.971Z,75.80
2022-12-16T00:43:23.692Z,76.04
2022-12-16T00:45:55.806Z,76.19
2022-12-16T00:48:27.771Z,75.72
2022-12-16T00:50:59.793Z,75.80
2022-12-16T00:53:32.278Z,76.08
2022-12-16T00:56:10.150Z,75.89
2022-12-16T00:58:42.831Z,76.30
2022-12-16T01:01:15.088Z,76.09
2022-12-16T01:03:47.139Z,76.32
2022-12-16T01:06:19.544Z,76.12
2022-12-16T01:08:52.120Z,76.21
2022-12-16T01:11:24.007Z,76.01
2022-12-16T01:13:55.919Z,75.97
2022-12-16T01:16:28.114Z,75.99
2022-12-16T01:19:00.136Z,75.69
2022-12-16T01:21:32.680Z,75.79
2022-12-16T01:24:04.598Z,76.36
2022-12-16T01:26:36.918Z,76.06
2022-12-16T01:29:08.760Z,75.96
2022-12-16T01:31:40.643Z,76.21
2022-12-16T01:34:12.639Z,75.99
2022-12-16T01:36:45.953Z,75.87
2022-12-16T01:39:17.950Z,75.87
2022-12-16T01:41:50.034Z,76.39
2022-12-16T01:44:25.563Z,76.64
2022-12-16T01:47:03.941Z,76.53
2022-12-16T01:49:42.957Z,76.66
2022-12-16T01:52:27.075Z,76.91
2022-12-16T01:57:57.315Z,77.42
2022-12-16T02:00:29.617Z,77.68
2022-12-16T02:03:02.832Z,77.57
2022-12-16T02:05:38.095Z,77.52
2022-12-16T02:08:18.661Z,77.29
2022-12-16T02:14:03.924Z,77.84
2022-12-16T02:16:57.430Z,78.04
2022-12-16T02:19:43.944Z,78.07
2022-12-16T02:22:30.816Z,78.18
2022-12-16T02:25:05.764Z,78.45
2022-12-16T02:30:58.511Z,78.75
2022-12-16T02:33:39.132Z,78.97
2022-12-16T02:36:14.167Z,78.97
2022-12-16T02:39:04.273Z,79.02
2022-12-16T02:41:55.153Z,78.96
2022-12-16T02:47:19.395Z,79.32
2022-12-16T02:49:53.809Z,79.54
2022-12-16T02:52:31.338Z,79.45
2022-12-16T02:55:06.551Z,79.48
2022-12-16T02:58:03.828Z,79.33
2022-12-16T03:03:48.174Z,79.30
2022-12-16T03:06:22.097Z,79.39
2022-12-16T03:08:57.247Z,79.21
2022-12-16T03:11:31.494Z,79.34
2022-12-16T03:14:04.378Z,79.48
2022-12-16T03:16:36.188Z,80.09
2022-12-16T03:19:21.026Z,79.49
2022-12-16T03:21:56.229Z,79.50
2022-12-16T03:24:29.126Z,79.74
2022-12-16T03:27:10.100Z,79.81
2022-12-16T03:29:57.030Z,79.73
2022-12-16T03:32:38.007Z,80.27
2022-12-16T03:38:13.456Z,80.47
2022-12-16T03:40:46.118Z,80.55
2022-12-16T03:43:19.261Z,80.49
2022-12-16T03:45:54.195Z,80.86
2022-12-16T03:48:27.719Z,80.87
2022-12-16T03:53:49.329Z,81.04
2022-12-16T03:56:21.297Z,81.26
2022-12-16T03:58:53.697Z,81.20
2022-12-16T04:01:26.048Z,81.20
2022-12-16T04:03:58.757Z,81.14
2022-12-16T04:06:31.335Z,81.14
2022-12-16T04:12:10.739Z,81.25
2022-12-16T04:15:01.130Z,81.19
2022-12-16T04:17:51.560Z,81.15
2022-12-16T04:20:43.755Z,81.00
2022-12-16T04:23:34.773Z,80.97
2022-12-16T04:26:25.766Z,81.14
2022-12-16T04:28:57.960Z,81.20
2022-12-16T04:31:30.190Z,80.90
2022-12-16T04:34:20.078Z,80.99
2022-12-16T04:37:10.400Z,81.00
2022-12-16T04:40:00.623Z,81.06
2022-12-16T04:45:59.517Z,80.86
2022-12-16T04:48:49.362Z,81.02
2022-12-16T04:51:39.696Z,81.22
2022-12-16T04:54:29.604Z,81.27
2022-12-16T04:57:19.492Z,81.17
2022-12-16T05:00:10.390Z,81.53
2022-12-16T05:03:01.247Z,81.55
2022-12-16T05:05:50.915Z,81.49
2022-12-16T05:08:40.948Z,81.37
2022-12-16T05:11:31.725Z,81.48
2022-12-16T05:14:21.767Z,81.48
2022-12-16T05:17:12.388Z,82.05
2022-12-16T05:20:02.690Z,81.93
2022-12-16T05:22:52.751Z,82.13
2022-12-16T05:25:42.468Z,82.67
2022-12-16T05:28:32.199Z,82.40
2022-12-16T05:34:30.011Z,82.34
2022-12-16T05:37:19.744Z,82.11
2022-12-16T05:40:09.905Z,82.17
2022-12-16T05:43:01.960Z,82.21
2022-12-16T05:45:52.265Z,82.31
2022-12-16T05:48:47.611Z,82.70
2022-12-16T05:51:34.607Z,82.44
2022-12-16T05:54:24.315Z,82.61
2022-12-16T05:57:14.010Z,82.68
2022-12-16T06:00:04.347Z,82.58
2022-12-16T06:02:55.739Z,82.57
2022-12-16T06:05:46.650Z,82.94
2022-12-16T06:08:36.578Z,82.71
2022-12-16T06:11:27.550Z,82.45
2022-12-16T06:14:17.663Z,82.67
2022-12-16T06:17:07.210Z,82.60
2022-12-16T06:19:56.819Z,82.40
2022-12-16T06:22:46.735Z,82.75
2022-12-16T06:25:36.945Z,82.71
2022-12-16T06:28:26.638Z,83.09
2022-12-16T06:31:17.088Z,82.58
2022-12-16T06:34:08.864Z,82.59
2022-12-16T06:36:59.942Z,82.64
2022-12-16T06:39:52.895Z,82.23
2022-12-16T06:42:41.554Z,82.53
2022-12-16T06:45:34.903Z,82.39
2022-12-16T06:48:23.419Z,82.16
2022-12-16T06:51:13.917Z,81.74
2022-12-16T06:54:04.738Z,81.60
2022-12-16T06:56:54.838Z,82.29
2022-12-16T06:59:44.445Z,82.15
2022-12-16T07:02:34.779Z,82.41
2022-12-16T07:05:25.958Z,81.68
2022-12-16T07:08:15.997Z,81.77
2022-12-16T07:11:16.188Z,81.25
2022-12-16T07:13:57.867Z,81.30
2022-12-16T07:16:47.637Z,81.45
2022-12-16T07:19:38.156Z,81.57
2022-12-16T07:22:28.150Z,81.32
2022-12-16T07:25:17.789Z,81.42
2022-12-16T07:28:12.299Z,81.14
2022-12-16T07:31:01.136Z,81.32
2022-12-16T07:33:51.725Z,81.21
2022-12-16T07:36:42.568Z,81.53
2022-12-16T07:39:32.744Z,81.52
2022-12-16T07:42:22.828Z,81.59
2022-12-16T07:45:13.355Z,81.35
2022-12-16T07:48:10.248Z,81.17
2022-12-16T07:51:00.547Z,81.42
2022-12-16T07:53:50.860Z,81.37
2022-12-16T07:56:40.922Z,81.47
2022-12-16T07:59:32.112Z,82.12
2022-12-16T08:02:21.964Z,81.88
2022-12-16T08:05:12.130Z,81.94
2022-12-16T08:08:02.828Z,81.76
2022-12-16T08:10:52.567Z,81.99
2022-12-16T08:13:43.952Z,81.48
2022-12-16T08:16:33.793Z,81.50
2022-12-16T08:19:23.999Z,82.02
2022-12-16T08:22:13.425Z,82.95
2022-12-16T08:25:03.520Z,82.48
2022-12-16T08:27:52.372Z,82.29
2022-12-16T08:30:43.113Z,82.43
2022-12-16T08:33:33.459Z,82.63
2022-12-16T08:36:23.917Z,83.13
2022-12-16T08:39:14.762Z,82.75
2022-12-16T08:42:05.865Z,82.71
2022-12-16T08:44:55.956Z,82.23
2022-12-16T08:47:46.523Z,82.03
2022-12-16T08:50:36.933Z,82.07
2022-12-16T08:53:27.205Z,82.14
2022-12-16T08:56:17.117Z,82.31
2022-12-16T08:59:06.964Z,82.04
2022-12-16T09:01:57.547Z,81.62
2022-12-16T09:04:47.553Z,81.59
2022-12-16T09:07:38.170Z,81.87
2022-12-16T09:10:28.267Z,82.39
2022-12-16T09:13:29.895Z,82.70
2022-12-16T09:16:20.979Z,81.90
2022-12-16T09:19:11.062Z,81.79
2022-12-16T09:22:01.502Z,81.78
2022-12-16T09:24:51.420Z,81.68
2022-12-16T09:27:41.278Z,82.67
2022-12-16T09:30:31.302Z,82.03
2022-12-16T09:33:21.789Z,82.09
2022-12-16T09:36:12.029Z,81.76
2022-12-16T09:38:48.933Z,81.65
2022-12-16T09:41:53.167Z,81.31
2022-12-16T09:45:09.090Z,81.12
2022-12-16T09:48:08.118Z,80.96
2022-12-16T09:51:03.310Z,81.10
2022-12-16T09:53:55.164Z,81.06
2022-12-16T09:56:48.389Z,81.75
2022-12-16T09:59:47.041Z,82.05
2022-12-16T10:02:39.073Z,82.35
2022-12-16T10:05:17.939Z,82.37
2022-12-16T10:08:18.815Z,82.61
2022-12-16T10:11:28.770Z,82.57
2022-12-16T10:14:30.242Z,82.15
2022-12-16T10:17:34.646Z,82.23
2022-12-16T10:20:36.079Z,82.95
2022-12-16T10:23:32.004Z,82.86
2022-12-16T10:26:28.093Z,82.73
2022-12-16T10:29:23.514Z,83.28
2022-12-16T10:32:13.770Z,82.88
2022-12-16T10:35:03.754Z,82.70
2022-12-16T10:37:55.587Z,82.57
2022-12-16T10:40:48.355Z,82.63
2022-12-16T10:43:56.518Z,82.62
2022-12-16T10:46:49.277Z,82.88
2022-12-16T10:49:40.237Z,83.04
2022-12-16T10:52:33.191Z,82.67
2022-12-16T10:55:40.466Z,83.03
2022-12-16T10:58:49.690Z,82.64
2022-12-16T11:01:46.585Z,82.91
2022-12-16T11:04:56.104Z,83.25
2022-12-16T11:08:00.498Z,83.33
2022-12-16T11:10:56.186Z,83.54
2022-12-16T11:13:51.267Z,83.85
2022-12-16T11:16:47.789Z,83.70
2022-12-16T11:19:50.774Z,83.71
2022-12-16T11:22:43.248Z,83.70
2022-12-16T11:25:35.624Z,83.73
2022-12-16T11:28:31.253Z,83.75
2022-12-16T11:31:33.230Z,83.69
2022-12-16T11:34:24.031Z,83.51
2022-12-16T11:37:19.497Z,83.71
2022-12-16T11:40:06.862Z,83.48
2022-12-16T11:43:00.193Z,83.46
2022-12-16T11:45:49.242Z,83.81
2022-12-16T11:49:00.036Z,84.27
2022-12-16T11:52:03.753Z,84.09
2022-12-16T11:54:50.060Z,84.05
2022-12-16T11:57:45.383Z,84.16
2022-12-16T12:00:37.583Z,83.78
2022-12-16T12:03:30.540Z,83.93
2022-12-16T12:06:26.084Z,83.83
2022-12-16T12:09:18.740Z,83.83
2022-12-16T12:12:17.776Z,83.59
2022-12-16T12:15:16.123Z,83.18
2022-12-16T12:18:25.264Z,84.30
2022-12-16T12:21:22.041Z,84.00
2022-12-16T12:24:15.496Z,84.31
2022-12-16T12:27:12.238Z,84.27
2022-12-16T12:30:13.002Z,84.41
2022-12-16T12:33:11.618Z,84.81
2022-12-16T12:36:16.518Z,84.85
2022-12-16T12:39:24.086Z,84.71
2022-12-16T12:42:28.592Z,84.56
2022-12-16T12:45:40.836Z,84.57
2022-12-16T12:48:36.233Z,84.91
2022-12-16T12:51:46.675Z,85.05
2022-12-16T12:54:42.228Z,84.80
2022-12-16T12:57:35.317Z,85.21
2022-12-16T13:00:40.430Z,84.80
2022-12-16T13:03:54.246Z,84.63
2022-12-16T13:06:44.630Z,84.66
2022-12-16T13:09:46.527Z,84.66
2022-12-16T13:12:39.104Z,84.85
2022-12-16T13:15:31.945Z,85.00
2022-12-16T13:18:24.703Z,84.96
2022-12-16T13:21:16.698Z,84.81
2022-12-16T13:24:07.881Z,85.19
2022-12-16T13:27:00.496Z,84.93
2022-12-16T13:29:51.446Z,85.09
2022-12-16T13:32:44.138Z,84.87
2022-12-16T13:35:37.924Z,84.84
2022-12-16T13:38:40.948Z,84.75
2022-12-16T13:41:51.565Z,84.74
2022-12-16T13:45:02.157Z,84.86
2022-12-16T13:48:03.872Z,84.67
2022-12-16T13:50:59.956Z,84.66
2022-12-16T13:54:04.572Z,84.47
2022-12-16T13:56:55.568Z,84.66
2022-12-16T13:59:48.248Z,85.17
2022-12-16T14:02:44.018Z,84.66
2022-12-16T14:05:52.614Z,84.63
2022-12-16T14:08:45.179Z,84.91
2022-12-16T14:11:44.412Z,84.84
2022-12-16T14:14:43.380Z,84.82
2022-12-16T14:17:36.812Z,84.88
2022-12-16T14:20:49.992Z,84.81
2022-12-16T14:23:56.988Z,84.75
2022-12-16T14:26:46.989Z,84.64
2022-12-16T14:29:45.710Z,84.65
2022-12-16T14:32:50.828Z,84.39
2022-12-16T14:35:45.717Z,84.36
2022-12-16T14:38:42.207Z,84.17
2022-12-16T14:41:18.078Z,84.94
2022-12-16T14:44:08.529Z,84.60
2022-12-16T14:46:59.737Z,84.37
2022-12-16T14:49:52.337Z,84.23
2022-12-16T14:52:44.766Z,84.23
2022-12-16T14:55:40.599Z,84.40
2022-12-16T14:58:33.233Z,84.19
2022-12-16T15:01:35.276Z,84.12
2022-12-16T15:04:34.300Z,84.15
2022-12-16T15:07:31.183Z,83.90
2022-12-16T15:10:19.996Z,83.99
2022-12-16T15:13:09.734Z,83.77
2022-12-16T15:16:06.077Z,83.64
2022-12-16T15:18:59.936Z,83.66
2022-12-16T15:21:54.919Z,83.83
2022-12-16T15:24:48.166Z,84.15
2022-12-16T15:27:46.250Z,83.84
2022-12-16T15:30:56.816Z,84.02
2022-12-16T15:33:55.026Z,84.15
2022-12-16T15:36:50.682Z,84.09
2022-12-16T15:39:43.169Z,84.43
2022-12-16T15:42:44.888Z,84.58
2022-12-16T15:45:48.899Z,84.58
2022-12-16T15:48:47.117Z,84.45
2022-12-16T15:51:51.389Z,84.23
2022-12-16T15:54:43.457Z,84.06
2022-12-16T15:57:48.220Z,84.03
2022-12-16T16:00:46.907Z,83.58
2022-12-16T16:03:45.605Z,83.40
2022-12-16T16:06:39.313Z,83.38
2022-12-16T16:09:38.076Z,83.29
2022-12-16T16:12:30.525Z,83.15
2022-12-16T16:15:22.726Z,82.82
2022-12-16T16:18:21.655Z,82.26
2022-12-16T16:21:11.552Z,81.92
2022-12-16T16:24:02.661Z,81.78
2022-12-16T16:26:53.164Z,81.40
2022-12-16T16:29:43.463Z,81.43
2022-12-16T16:32:33.735Z,80.77
2022-12-16T16:35:24.698Z,80.30
2022-12-16T16:38:18.373Z,80.00
2022-12-16T16:41:07.826Z,79.71
2022-12-16T16:43:57.803Z,79.40
2022-12-16T16:46:53.296Z,79.06
2022-12-16T16:50:01.894Z,79.12
2022-12-16T16:52:52.849Z,78.96
2022-12-16T16:55:43.840Z,78.50
2022-12-16T16:58:40.069Z,78.31
2022-12-16T17:01:34.813Z,78.41
2022-12-16T17:04:24.704Z,78.91
2022-12-16T17:07:14.718Z,78.49
2022-12-16T17:10:05.152Z,78.37
2022-12-16T17:12:58.699Z,77.82
2022-12-16T17:15:52.005Z,77.93
2022-12-16T17:18:46.687Z,77.50
2022-12-16T17:21:34.465Z,77.08
2022-12-16T17:24:24.872Z,76.83
2022-12-16T17:27:14.794Z,76.31
2022-12-16T17:30:04.726Z,75.78
2022-12-16T17:32:54.071Z,75.36
2022-12-16T17:35:43.956Z,74.82
2022-12-16T17:38:34.164Z,74.45
2022-12-16T17:41:23.669Z,74.58
2022-12-16T17:44:13.784Z,74.57
2022-12-16T17:47:03.870Z,74.27
2022-12-16T17:49:54.009Z,74.09
2022-12-16T17:52:43.987Z,73.88
2022-12-16T17:55:34.166Z,73.95
2022-12-16T17:58:24.163Z,73.92
2022-12-16T18:01:22.911Z,73.83
2022-12-16T18:04:13.044Z,73.20
2022-12-16T18:07:03.432Z,73.02
2022-12-16T18:09:53.851Z,72.77
2022-12-16T18:12:44.669Z,73.11
2022-12-16T18:15:34.677Z,73.19
2022-12-16T18:18:24.706Z,72.90
2022-12-16T18:21:14.301Z,73.39
2022-12-16T18:24:04.367Z,74.10
2022-12-16T18:26:53.970Z,74.75
2022-12-16T18:29:43.638Z,74.59
2022-12-16T18:32:35.462Z,74.35
2022-12-16T18:35:26.436Z,74.17
2022-12-16T18:38:16.856Z,73.75
2022-12-16T18:41:06.768Z,73.99
2022-12-16T18:43:56.596Z,73.92
2022-12-16T18:46:46.429Z,73.94
2022-12-16T18:49:36.219Z,73.94
2022-12-16T18:52:26.033Z,73.93
2022-12-16T18:55:16.174Z,73.78
2022-12-16T18:58:02.104Z,73.68
2022-12-16T19:00:52.478Z,74.24
2022-12-16T19:03:42.065Z,73.71
2022-12-16T19:06:32.001Z,73.59
2022-12-16T19:09:21.862Z,73.72
2022-12-16T19:12:11.502Z,73.70
2022-12-16T19:15:01.453Z,73.13
2022-12-16T19:17:51.896Z,73.10
2022-12-16T19:20:42.032Z,73.01
2022-12-16T19:23:33.948Z,72.92
2022-12-16T19:26:23.879Z,73.37
2022-12-16T19:29:13.786Z,73.64
2022-12-16T19:32:03.726Z,73.31
2022-12-16T19:34:54.148Z,73.96
2022-12-16T19:37:45.606Z,73.15
2022-12-16T19:40:35.361Z,73.06
2022-12-16T19:43:25.677Z,73.10
2022-12-16T19:46:16.122Z,72.86
2022-12-16T19:49:05.984Z,73.84
2022-12-16T19:51:56.248Z,73.15
2022-12-16T19:54:46.341Z,74.71
2022-12-16T19:57:36.219Z,75.05
2022-12-16T20:00:26.647Z,75.07
2022-12-16T20:03:16.835Z,76.44
2022-12-16T20:06:08.812Z,76.07
2022-12-16T20:08:58.952Z,76.47
2022-12-16T20:11:48.525Z,75.85
2022-12-16T20:14:38.715Z,75.43
2022-12-16T20:17:29.062Z,75.31
2022-12-16T20:20:18.964Z,75.13
2022-12-16T20:23:09.049Z,74.96
2022-12-16T20:25:59.043Z,74.48
2022-12-16T20:28:49.519Z,74.22
2022-12-16T20:31:39.613Z,75.30
2022-12-16T20:34:29.320Z,75.09
2022-12-16T20:37:18.990Z,75.06
2022-12-16T20:40:08.974Z,75.46
2022-12-16T20:42:59.863Z,74.72
2022-12-16T20:45:50.028Z,74.68
2022-12-16T20:48:39.883Z,74.36
2022-12-16T20:51:29.633Z,73.80
2022-12-16T20:54:19.327Z,73.71
2022-12-16T20:57:13.004Z,73.48
2022-12-16T21:00:03.165Z,73.68
2022-12-16T21:02:53.500Z,73.68
2022-12-16T21:05:44.603Z,73.66
2022-12-16T21:08:34.401Z,73.44
2022-12-16T21:11:23.802Z,73.81
2022-12-16T21:14:13.794Z,73.19
2022-12-16T21:17:03.644Z,73.05
2022-12-16T21:19:53.362Z,72.89
2022-12-16T21:22:44.648Z,72.58
2022-12-16T21:25:34.086Z,72.55
2022-12-16T21:28:23.634Z,72.81
2022-12-16T21:31:14.379Z,73.11
2022-12-16T21:34:04.048Z,73.00
2022-12-16T21:36:53.980Z,72.89
2022-12-16T21:39:45.403Z,72.66
2022-12-16T21:42:37.667Z,73.22
2022-12-16T21:45:26.038Z,72.84
2022-12-16T21:48:15.930Z,72.54
2022-12-16T21:51:10.747Z,72.50
2022-12-16T21:54:06.319Z,72.80
2022-12-16T21:56:52.359Z,72.49
2022-12-16T21:59:45.765Z,72.56
2022-12-16T22:02:35.118Z,72.49
2022-12-16T22:05:26.358Z,72.53
2022-12-16T22:08:16.211Z,72.41
2022-12-16T22:11:05.703Z,72.33
2022-12-16T22:13:56.276Z,72.25
2022-12-16T22:16:45.988Z,72.73
2022-12-16T22:19:35.628Z,72.57
2022-12-16T22:22:25.511Z,72.50
2022-12-16T22:25:15.429Z,72.90
2022-12-16T22:28:04.969Z,72.99
2022-12-16T22:30:56.349Z,73.28
2022-12-16T22:33:46.041Z,73.06
2022-12-16T22:36:35.764Z,73.36
2022-12-16T22:39:25.662Z,73.16
2022-12-16T22:42:15.594Z,74.49
2022-12-16T22:45:05.590Z,73.75
2022-12-16T22:47:55.198Z,74.15
2022-12-16T22:50:45.722Z,73.82
2022-12-16T22:53:35.510Z,73.79
2022-12-16T22:56:25.164Z,73.57
2022-12-16T22:59:14.727Z,73.38
2022-12-16T23:02:04.628Z,73.35
2022-12-16T23:04:54.916Z,73.01
2022-12-16T23:07:46.316Z,72.91
2022-12-16T23:10:36.492Z,73.51
2022-12-16T23:13:27.196Z,73.06
2022-12-16T23:16:17.010Z,72.93
2022-12-16T23:19:06.551Z,72.96
2022-12-16T23:21:56.363Z,73.17
2022-12-16T23:24:46.135Z,73.00
2022-12-16T23:27:35.916Z,72.86
2022-12-16T23:30:26.420Z,72.37
2022-12-16T23:33:18.039Z,72.58
2022-12-16T23:36:08.086Z,72.55
2022-12-16T23:38:58.091Z,72.22
2022-12-16T23:41:47.629Z,72.12
2022-12-16T23:44:37.497Z,72.06
2022-12-16T23:47:27.214Z,71.97
2022-12-16T23:50:16.898Z,71.65
2022-12-16T23:53:06.399Z,72.46
2022-12-16T23:55:56.204Z,72.18
2022-12-16T23:58:46.048Z,71.92
